Time;durP1;ratioP1;P1;durP2;ratioP2;P2;SDS_P1;SDS_P2;PMS_P1;PMS_P2;Temp;Humidity;BMP_temperature;BMP_pressure;BME280_temperature;BME280_humidity;BME280_pressure;Samples;Min_cycle;Max_cycle;Signal;HPM_P1;HPM_P2
2022/09/04 00:00:18;;;;;;;16.38;11.05;;;;;;;18.30;67.38;95038.88;4183210;28;20097;-64
2022/09/04 00:02:32;;;;;;;18.48;11.77;;;;;;;18.28;67.17;95043.56;4208168;28;20044;-59
2022/09/04 00:04:59;;;;;;;15.38;11.90;;;;;;;18.27;67.25;95047.25;4213212;28;20629;-60
2022/09/04 00:07:01;;;;;;;19.80;11.70;;;;;;;18.24;67.24;95044.97;4198506;28;20055;-60
2022/09/04 00:09:23;;;;;;;15.52;11.45;;;;;;;18.20;67.33;95044.56;4212100;28;20052;-59
2022/09/04 00:11:43;;;;;;;16.15;11.60;;;;;;;18.20;67.56;95044.56;4203379;28;20040;-59
2022/09/04 00:13:51;;;;;;;16.67;11.52;;;;;;;18.21;67.36;95054.94;4212951;28;20088;-59
2022/09/04 00:16:06;;;;;;;14.10;11.05;;;;;;;18.21;67.45;95046.19;4212495;28;20069;-64
2022/09/04 00:18:12;;;;;;;15.80;10.70;;;;;;;18.18;67.55;95046.59;4211626;28;20451;-65
2022/09/04 00:20:30;;;;;;;13.77;10.07;;;;;;;18.18;67.46;95047.41;4211383;28;20048;-64
2022/09/04 00:22:57;;;;;;;14.07;9.75;;;;;;;18.19;67.49;95054.34;4220111;28;20109;-64
2022/09/04 00:25:13;;;;;;;17.40;13.20;;;;;;;18.17;67.75;95045.75;4227281;28;20051;-65
2022/09/04 00:27:22;;;;;;;13.63;11.32;;;;;;;18.19;67.87;95048.22;4211590;28;20056;-65
2022/09/04 00:29:39;;;;;;;11.82;9.43;;;;;;;18.10;68.07;95049.41;4211143;28;20109;-65
2022/09/04 00:31:49;;;;;;;10.88;8.02;;;;;;;17.71;68.31;95061.41;4212512;28;20073;-65
2022/09/04 00:34:17;;;;;;;8.50;6.63;;;;;;;17.06;70.26;95060.72;4210125;28;20092;-65
2022/09/04 00:36:21;;;;;;;6.95;6.15;;;;;;;16.49;72.31;95057.88;4199202;28;20472;-64
2022/09/04 00:38:46;;;;;;;7.15;6.10;;;;;;;16.30;73.01;95064.56;4209878;28;20146;-64
2022/09/04 00:41:24;;;;;;;7.80;6.43;;;;;;;16.27;73.48;95051.72;4211386;28;20044;-67
2022/09/04 00:43:47;;;;;;;7.93;7.13;;;;;;;16.42;73.47;95056.97;4196384;28;20457;-64
2022/09/04 00:46:17;;;;;;;7.75;6.53;;;;;;;16.61;72.70;95057.41;4212731;28;20097;-65
2022/09/04 00:48:50;;;;;;;9.45;7.10;;;;;;;16.78;72.06;95056.16;4190776;28;20721;-65
2022/09/04 00:50:58;;;;;;;7.50;6.70;;;;;;;16.94;71.30;95055.09;4201091;28;20056;-67
2022/09/04 00:53:03;;;;;;;9.90;5.93;;;;;;;16.99;70.82;95050.03;4210716;28;20712;-65
2022/09/04 00:55:28;;;;;;;8.10;7.13;;;;;;;17.09;70.75;95047.09;4208291;28;20044;-65
2022/09/04 00:57:55;;;;;;;11.25;7.07;;;;;;;17.19;70.03;95058.97;4199547;28;20045;-64
2022/09/04 01:00:16;;;;;;;7.22;6.22;;;;;;;17.15;69.61;95057.72;4202932;28;20048;-65
2022/09/04 01:02:37;;;;;;;10.23;7.00;;;;;;;16.99;70.47;95047.41;4203644;28;20052;-65
2022/09/04 01:05:06;;;;;;;12.50;7.13;;;;;;;17.04;70.98;95052.97;4196695;28;20071;-62
2022/09/04 01:07:30;;;;;;;8.55;7.22;;;;;;;17.16;71.11;95061.19;4207910;28;20056;-65
2022/09/04 01:09:31;;;;;;;9.23;7.88;;;;;;;17.23;70.78;95061.25;4202332;28;20525;-63
2022/09/04 01:11:50;;;;;;;10.00;8.60;;;;;;;17.29;70.67;95053.34;4212118;28;20048;-63
2022/09/04 01:14:28;;;;;;;11.88;9.48;;;;;;;17.31;70.69;95050.50;4210902;28;20066;-66
2022/09/04 01:16:36;;;;;;;11.85;8.80;;;;;;;17.36;70.49;95058.72;4202767;28;20113;-65
2022/09/04 01:18:58;;;;;;;9.75;8.75;;;;;;;17.36;70.28;95064.81;4210447;28;20139;-65
2022/09/04 01:21:29;;;;;;;12.38;8.95;;;;;;;17.36;70.32;95067.47;4199314;28;20059;-66
2022/09/04 01:24:07;;;;;;;11.15;9.60;;;;;;;17.37;70.29;95061.16;4210280;28;20476;-66
2022/09/04 01:26:20;;;;;;;11.20;9.52;;;;;;;17.39;70.04;95058.31;4212069;28;20093;-64
2022/09/04 01:28:46;;;;;;;13.57;9.18;;;;;;;17.38;70.08;95059.34;4211095;28;20052;-64
2022/09/04 01:30:55;;;;;;;11.68;9.30;;;;;;;17.39;70.12;95051.19;4200857;28;20048;-64
2022/09/04 01:33:18;;;;;;;9.57;8.57;;;;;;;17.44;69.98;95049.78;4187898;28;20419;-65
2022/09/04 01:35:43;;;;;;;10.85;9.07;;;;;;;17.46;69.98;95047.78;4211186;28;20504;-65
2022/09/04 01:38:03;;;;;;;12.00;9.82;;;;;;;17.49;69.56;95048.22;4211332;28;20063;-64
2022/09/04 01:40:19;;;;;;;13.63;9.07;;;;;;;17.49;69.67;95045.56;4209186;28;20106;-65
2022/09/04 01:42:29;;;;;;;11.13;8.48;;;;;;;17.50;69.60;95038.44;4211749;28;20121;-64
2022/09/04 01:44:32;;;;;;;12.40;7.60;;;;;;;17.50;69.23;95043.72;4212057;28;20109;-65
2022/09/04 01:46:56;;;;;;;8.90;7.40;;;;;;;17.50;69.18;95033.13;4213783;28;20119;-65
2022/09/04 01:49:06;;;;;;;9.05;8.10;;;;;;;17.49;69.47;95039.47;4219442;28;20052;-65
2022/09/04 01:51:15;;;;;;;11.57;8.55;;;;;;;17.45;69.32;95041.66;4210376;28;20105;-65
2022/09/04 01:53:23;;;;;;;14.90;8.43;;;;;;;17.44;69.44;95050.59;4210787;28;20105;-63
2022/09/04 01:55:56;;;;;;;9.90;8.05;;;;;;;17.39;69.30;95034.50;4204545;28;20544;-64
2022/09/04 01:58:35;;;;;;;12.15;8.98;;;;;;;17.08;69.65;95045.44;4188416;28;20048;-63
2022/09/04 02:01:14;;;;;;;11.85;8.48;;;;;;;16.13;72.79;95034.91;4206340;28;20059;-63
2022/09/04 02:03:31;;;;;;;16.60;9.85;;;;;;;15.39;76.22;95034.88;4174306;28;20051;-64
2022/09/04 02:06:18;;;;;;;14.07;10.32;;;;;;;15.15;77.44;95042.03;4206249;28;20052;-65
2022/09/04 02:08:25;;;;;;;14.30;9.82;;;;;;;15.11;78.12;95032.81;4208612;28;20625;-63
2022/09/04 02:10:32;;;;;;;15.95;11.18;;;;;;;15.26;77.98;95035.50;4211539;28;20044;-65
2022/09/04 02:12:57;;;;;;;14.02;10.63;;;;;;;15.18;77.66;95032.94;4211801;28;20401;-61
2022/09/04 02:15:29;;;;;;;14.32;10.25;;;;;;;15.01;78.40;95031.44;4197481;28;20097;-59
2022/09/04 02:17:57;;;;;;;14.85;10.70;;;;;;;14.74;79.42;95039.72;4209468;28;20059;-58
2022/09/04 02:20:28;;;;;;;11.80;9.93;;;;;;;14.72;79.73;95033.81;4199751;28;20044;-60
2022/09/04 02:22:51;;;;;;;12.95;10.27;;;;;;;14.66;80.23;95039.78;4201567;28;20049;-59
2022/09/04 02:25:14;;;;;;;13.02;10.68;;;;;;;14.71;79.94;95037.47;4206659;28;20044;-58
2022/09/04 02:27:22;;;;;;;14.60;11.05;;;;;;;14.79;79.87;95035.75;4206432;28;20047;-60
2022/09/04 02:30:02;;;;;;;18.58;10.88;;;;;;;14.86;79.11;95031.38;4210078;28;20064;-59
2022/09/04 02:32:12;;;;;;;15.70;10.30;;;;;;;14.89;79.41;95018.69;4189117;28;20054;-60
2022/09/04 02:34:24;;;;;;;13.30;10.98;;;;;;;15.09;79.47;95013.72;4210733;28;20048;-59
2022/09/04 02:36:32;;;;;;;12.65;10.38;;;;;;;15.28;77.91;95016.84;4210039;28;20036;-58
2022/09/04 02:39:10;;;;;;;13.13;10.65;;;;;;;15.35;77.12;95023.03;4209362;28;20470;-59
2022/09/04 02:41:25;;;;;;;13.18;10.82;;;;;;;15.26;77.26;95018.84;4211357;28;20056;-60
2022/09/04 02:43:41;;;;;;;12.43;10.00;;;;;;;15.14;77.53;95027.22;4209896;28;20043;-65
2022/09/04 02:46:04;;;;;;;12.60;10.30;;;;;;;14.85;78.99;95035.84;4209306;28;20093;-67
2022/09/04 02:48:17;;;;;;;12.88;10.60;;;;;;;14.97;79.18;95032.78;4216656;28;20060;-65
2022/09/04 02:50:37;;;;;;;15.55;10.63;;;;;;;15.14;78.83;95031.63;4209997;28;20062;-65
2022/09/04 02:52:58;;;;;;;12.55;9.48;;;;;;;15.37;77.94;95036.88;4213541;28;20059;-65
2022/09/04 02:55:27;;;;;;;13.52;10.27;;;;;;;15.54;76.98;95041.00;4205031;28;20480;-64
2022/09/04 02:57:57;;;;;;;14.00;9.98;;;;;;;15.53;76.66;95042.00;4211282;28;20051;-65
2022/09/04 03:00:14;;;;;;;12.30;10.13;;;;;;;15.05;78.03;95040.63;4204643;28;20408;-63
2022/09/04 03:02:33;;;;;;;15.70;10.57;;;;;;;14.63;79.63;95045.41;4206591;28;20080;-65
2022/09/04 03:04:48;;;;;;;15.20;11.02;;;;;;;14.21;81.58;95043.97;4198012;28;20063;-64
2022/09/04 03:07:10;;;;;;;13.95;10.88;;;;;;;13.99;82.80;95055.28;4208155;28;20056;-65
2022/09/04 03:09:16;;;;;;;12.13;10.85;;;;;;;13.99;83.46;95053.47;4214277;28;20052;-65
2022/09/04 03:11:32;;;;;;;14.07;11.05;;;;;;;14.22;83.24;95048.28;4213126;28;20055;-64
2022/09/04 03:13:55;;;;;;;14.43;11.00;;;;;;;14.27;81.63;95050.38;4212661;28;20059;-63
2022/09/04 03:16:20;;;;;;;18.20;12.40;;;;;;;13.85;83.52;95055.03;4205164;28;20043;-64
2022/09/04 03:18:51;;;;;;;21.90;14.18;;;;;;;13.52;85.32;95055.09;4209085;28;20155;-64
2022/09/04 03:21:02;;;;;;;18.48;13.52;;;;;;;13.46;86.26;95062.84;4201265;28;22097;-64
2022/09/04 03:23:11;;;;;;;26.05;15.20;;;;;;;13.40;86.63;95053.84;4213560;28;20044;-64
2022/09/04 03:25:22;;;;;;;24.00;15.68;;;;;;;13.47;86.36;95048.72;4212480;28;20047;-64
2022/09/04 03:27:25;;;;;;;21.38;15.00;;;;;;;13.54;86.49;95056.75;4208180;28;20060;-64
2022/09/04 03:29:50;;;;;;;19.77;13.88;;;;;;;13.70;86.47;95046.16;4207520;28;20537;-63
2022/09/04 03:32:16;;;;;;;21.30;14.50;;;;;;;13.91;85.25;95049.06;4212238;28;20504;-64
2022/09/04 03:34:23;;;;;;;19.02;14.30;;;;;;;14.02;84.58;95049.66;4213292;28;20052;-57
2022/09/04 03:37:04;;;;;;;17.95;14.75;;;;;;;14.17;84.20;95045.31;4202108;28;20036;-59
2022/09/04 03:39:45;;;;;;;24.05;13.15;;;;;;;14.19;83.36;95059.13;4185271;28;20056;-57
2022/09/04 03:42:18;;;;;;;38.17;13.57;;;;;;;13.97;83.66;95067.81;4181912;28;20075;-58
2022/09/04 03:44:39;;;;;;;20.65;13.82;;;;;;;14.07;83.93;95061.34;4213837;28;20111;-64
2022/09/04 03:46:59;;;;;;;20.88;14.30;;;;;;;14.13;84.27;95065.94;4213113;28;20052;-67
2022/09/04 03:49:22;;;;;;;34.78;14.13;;;;;;;14.20;83.15;95076.59;4213876;28;20040;-64
2022/09/04 03:51:44;;;;;;;17.98;13.52;;;;;;;14.25;83.42;95076.91;4213429;28;20043;-66
2022/09/04 03:54:15;;;;;;;16.80;12.50;;;;;;;14.44;82.68;95072.19;4213470;28;20131;-63
2022/09/04 03:56:38;;;;;;;17.23;12.68;;;;;;;14.63;82.27;95077.06;4208456;28;20097;-64
2022/09/04 03:58:52;;;;;;;31.60;14.02;;;;;;;14.76;80.84;95076.47;4207978;28;20059;-61
2022/09/04 04:00:56;;;;;;;18.17;14.27;;;;;;;14.77;80.64;95083.38;4212429;28;20055;-63
2022/09/04 04:03:37;;;;;;;17.88;13.57;;;;;;;14.86;80.55;95087.63;4211278;28;20047;-66
2022/09/04 04:05:57;;;;;;;16.63;12.90;;;;;;;14.99;79.85;95092.28;4213488;28;20101;-65
2022/09/04 04:08:05;;;;;;;16.52;12.15;;;;;;;15.06;78.87;95098.50;4212661;28;20051;-64
2022/09/04 04:10:13;;;;;;;14.55;11.98;;;;;;;15.10;78.45;95105.09;4213528;28;20048;-64
2022/09/04 04:12:38;;;;;;;15.88;12.48;;;;;;;15.19;78.10;95112.94;4213060;28;20516;-65
2022/09/04 04:14:50;;;;;;;17.20;12.35;;;;;;;15.13;77.90;95125.00;4195138;28;20079;-65
2022/09/04 04:16:58;;;;;;;16.80;11.80;;;;;;;15.16;78.04;95122.00;4211578;28;20136;-65
2022/09/04 04:19:13;;;;;;;13.80;11.82;;;;;;;15.17;77.95;95120.22;4200158;28;20051;-64
2022/09/04 04:21:53;;;;;;;14.93;11.32;;;;;;;15.23;78.06;95130.03;4213547;28;20120;-63
2022/09/04 04:23:58;;;;;;;14.05;11.63;;;;;;;15.22;78.08;95131.03;4209825;28;20047;-65
2022/09/04 04:26:09;;;;;;;20.67;12.55;;;;;;;15.25;78.23;95133.31;4212832;28;20036;-63
2022/09/04 04:28:31;;;;;;;17.13;12.00;;;;;;;15.35;77.84;95133.91;4211847;28;20052;-64
2022/09/04 04:30:49;;;;;;;14.82;12.02;;;;;;;15.47;77.66;95127.22;4200753;28;20584;-65
2022/09/04 04:33:07;;;;;;;15.07;11.02;;;;;;;15.51;77.26;95131.13;4212429;28;20432;-64
2022/09/04 04:35:17;;;;;;;14.43;11.38;;;;;;;15.58;76.84;95139.16;4211631;28;20079;-65
2022/09/04 04:37:35;;;;;;;14.18;10.98;;;;;;;15.59;76.41;95145.25;4207259;28;20051;-65
2022/09/04 04:39:57;;;;;;;15.90;11.75;;;;;;;15.57;76.42;95140.16;4208083;28;20095;-66
2022/09/04 04:42:11;;;;;;;20.48;12.23;;;;;;;15.61;76.75;95132.69;4205744;28;20520;-65
2022/09/04 04:45:48;;;;;;;13.95;11.77;;;;;;;15.60;76.73;95125.78;4212999;28;20078;-66
2022/09/04 04:47:14;;;;;;;14.75;11.75;;;;;;;15.71;76.74;95126.19;4211342;28;20059;-65
2022/09/04 04:49:32;;;;;;;14.93;11.73;;;;;;;15.73;75.98;95129.47;4211698;28;20048;-65
2022/09/04 04:51:45;;;;;;;14.13;11.35;;;;;;;15.66;76.03;95139.09;4213062;28;20667;-66
2022/09/04 04:54:12;;;;;;;12.85;10.82;;;;;;;15.61;76.52;95143.25;4212597;28;20052;-65
2022/09/04 04:56:21;;;;;;;13.88;11.63;;;;;;;15.66;76.53;95149.66;4211771;28;20113;-66
2022/09/04 04:58:26;;;;;;;16.95;12.00;;;;;;;15.77;76.38;95145.78;4211981;28;20435;-66
2022/09/04 05:00:39;;;;;;;16.80;12.00;;;;;;;15.86;75.87;95144.69;4211559;28;20117;-66
2022/09/04 05:03:00;;;;;;;15.68;11.82;;;;;;;15.99;75.85;95149.34;4197529;28;21064;-64
2022/09/04 05:05:17;;;;;;;16.27;13.02;;;;;;;16.13;75.19;95145.91;4212792;28;20050;-66
2022/09/04 05:07:40;;;;;;;15.18;12.57;;;;;;;16.28;74.88;95145.91;4210371;28;20113;-66
2022/09/04 05:09:57;;;;;;;19.58;12.65;;;;;;;16.41;74.41;95142.59;4203546;28;20051;-66
2022/09/04 05:12:05;;;;;;;17.00;13.15;;;;;;;16.50;74.09;95127.47;4211169;28;20044;-66
2022/09/04 05:14:46;;;;;;;15.90;13.15;;;;;;;16.53;73.68;95129.72;4198868;28;20056;-59
2022/09/04 05:17:30;;;;;;;15.82;11.88;;;;;;;16.56;73.33;95124.06;4196822;28;20456;-58
2022/09/04 05:19:38;;;;;;;14.05;12.13;;;;;;;16.66;73.58;95131.72;4182594;28;20059;-58
2022/09/04 05:21:54;;;;;;;16.40;12.82;;;;;;;16.74;72.95;95129.78;4212426;28;20474;-60
2022/09/04 05:24:03;;;;;;;17.75;12.77;;;;;;;16.82;73.01;95133.31;4200153;28;20097;-58
2022/09/04 05:26:05;;;;;;;18.77;12.93;;;;;;;16.93;72.64;95138.16;4204607;28;20052;-59
2022/09/04 05:28:18;;;;;;;14.35;11.15;;;;;;;16.91;72.46;95150.75;4212483;28;20052;-59
2022/09/04 05:30:46;;;;;;;19.58;13.23;;;;;;;16.93;72.20;95154.03;4211368;28;20480;-57
2022/09/04 05:33:14;;;;;;;19.02;12.15;;;;;;;16.89;72.36;95150.13;4210111;28;20127;-58
2022/09/04 05:35:30;;;;;;;16.73;11.38;;;;;;;16.83;72.69;95151.66;4204277;28;20044;-58
2022/09/04 05:37:42;;;;;;;19.00;12.30;;;;;;;16.83;72.69;95143.72;4224119;28;20142;-59
2022/09/04 05:40:03;;;;;;;15.85;11.80;;;;;;;16.76;72.19;95153.41;4205891;28;20610;-58
2022/09/04 05:42:05;;;;;;;13.93;11.65;;;;;;;16.71;72.75;95159.25;4205779;28;20578;-59
2022/09/04 05:44:34;;;;;;;17.58;12.55;;;;;;;16.64;73.18;95171.56;4212294;28;20052;-59
2022/09/04 05:47:22;;;;;;;15.80;12.30;;;;;;;16.43;73.71;95158.28;4211622;28;20512;-58
2022/09/04 05:49:49;;;;;;;17.88;13.98;;;;;;;15.89;75.46;95152.25;4201514;28;20723;-61
2022/09/04 05:52:07;;;;;;;20.58;14.25;;;;;;;15.83;76.77;95157.44;4211535;28;20098;-61
2022/09/04 05:54:41;;;;;;;20.05;14.52;;;;;;;15.89;76.90;95151.44;4210660;28;20066;-60
2022/09/04 05:57:01;;;;;;;17.67;14.63;;;;;;;15.83;77.09;95154.78;4159917;28;20055;-61
2022/09/04 05:59:31;;;;;;;18.33;15.00;;;;;;;15.81;77.24;95147.06;4208197;28;20051;-59
2022/09/04 06:01:58;;;;;;;19.77;15.38;;;;;;;15.79;77.32;95141.16;4183860;28;20109;-60
2022/09/04 06:04:09;;;;;;;24.63;16.10;;;;;;;15.80;77.57;95131.38;4211862;28;20429;-60
2022/09/04 06:06:11;;;;;;;21.35;15.88;;;;;;;15.73;77.57;95120.72;4195244;28;20044;-60
2022/09/04 06:09:05;;;;;;;19.33;15.30;;;;;;;15.53;78.47;95123.84;4200812;28;20133;-66
2022/09/04 06:11:31;;;;;;;19.67;15.85;;;;;;;15.76;78.85;95126.44;4195296;28;20052;-64
2022/09/04 06:13:49;;;;;;;19.58;15.18;;;;;;;16.12;78.29;95124.94;4211857;28;20392;-65
2022/09/04 06:16:09;;;;;;;20.95;16.67;;;;;;;16.35;76.13;95122.19;4203325;28;20047;-67
2022/09/04 06:18:26;;;;;;;20.67;15.55;;;;;;;16.55;75.91;95123.25;4217415;28;20048;-66
2022/09/04 06:20:49;;;;;;;22.75;16.30;;;;;;;16.35;75.20;95127.47;4211299;28;20518;-63
2022/09/04 06:23:04;;;;;;;21.42;15.90;;;;;;;16.39;75.87;95126.13;4209564;28;20051;-65
2022/09/04 06:25:09;;;;;;;18.95;15.18;;;;;;;16.57;75.81;95120.41;4211081;28;20056;-67
2022/09/04 06:27:29;;;;;;;19.00;15.80;;;;;;;16.87;74.67;95125.66;4207452;28;20051;-66
2022/09/04 06:29:47;;;;;;;18.67;15.48;;;;;;;17.18;73.63;95122.72;4206064;28;20051;-66
2022/09/04 06:31:51;;;;;;;21.10;15.35;;;;;;;17.40;72.89;95120.84;4209627;28;20109;-67
2022/09/04 06:33:59;;;;;;;18.88;14.57;;;;;;;17.63;71.88;95117.19;4205548;28;20070;-66
2022/09/04 06:36:20;;;;;;;21.90;16.33;;;;;;;17.80;70.95;95123.81;4209854;28;20749;-67
2022/09/04 06:38:41;;;;;;;18.75;15.65;;;;;;;17.95;70.57;95126.41;4210329;28;20044;-66
2022/09/04 06:41:07;;;;;;;16.40;14.23;;;;;;;18.09;69.42;95127.28;4210148;28;20560;-66
2022/09/04 06:43:18;;;;;;;16.77;14.38;;;;;;;18.09;69.02;95125.47;4209938;28;20044;-64
2022/09/04 06:45:34;;;;;;;17.20;14.52;;;;;;;17.76;70.59;95128.69;4209142;28;20068;-66
2022/09/04 06:48:01;;;;;;;14.88;13.10;;;;;;;17.86;70.94;95125.75;4209952;28;20056;-67
2022/09/04 06:50:17;;;;;;;18.65;13.93;;;;;;;17.93;69.82;95129.25;4182156;28;20154;-67
2022/09/04 06:52:28;;;;;;;14.75;13.00;;;;;;;17.99;70.02;95131.13;4208941;28;20405;-66
2022/09/04 06:54:45;;;;;;;18.60;13.00;;;;;;;18.09;69.81;95127.28;4195515;28;20497;-66
2022/09/04 06:56:59;;;;;;;16.17;12.65;;;;;;;18.26;69.64;95122.50;4211014;28;20516;-66
2022/09/04 06:59:13;;;;;;;15.15;13.18;;;;;;;18.44;68.58;95119.34;4208581;28;20060;-64
2022/09/04 07:01:18;;;;;;;17.02;11.65;;;;;;;18.62;68.21;95119.59;4214015;28;20051;-67
2022/09/04 07:03:51;;;;;;;13.32;11.55;;;;;;;18.83;67.24;95124.81;4210955;28;20071;-64
2022/09/04 07:06:22;;;;;;;13.15;10.90;;;;;;;18.78;67.34;95124.59;4198672;28;20076;-67
2022/09/04 07:08:32;;;;;;;15.18;11.10;;;;;;;18.86;67.81;95114.81;4208833;28;20770;-68
2022/09/04 07:10:40;;;;;;;16.70;11.27;;;;;;;19.05;67.31;95114.03;4209506;28;20203;-68
2022/09/04 07:13:22;;;;;;;13.30;10.32;;;;;;;19.30;66.41;95111.63;4210026;28;20044;-67
2022/09/04 07:15:48;;;;;;;12.20;9.90;;;;;;;19.51;65.29;95121.25;4198345;28;20053;-66
2022/09/04 07:18:16;;;;;;;14.68;11.77;;;;;;;19.35;65.32;95118.97;4202302;28;20549;-67
2022/09/04 07:20:34;;;;;;;15.20;11.52;;;;;;;19.25;66.18;95119.38;4209269;28;20052;-65
2022/09/04 07:23:02;;;;;;;15.32;12.48;;;;;;;19.28;66.18;95121.63;4202575;28;20049;-64
2022/09/04 07:25:25;;;;;;;14.65;11.77;;;;;;;19.30;66.27;95124.09;4224373;28;20641;-65
2022/09/04 07:27:41;;;;;;;14.23;11.88;;;;;;;19.30;65.94;95108.97;4216126;28;20415;-67
2022/09/04 07:30:16;;;;;;;17.42;14.00;;;;;;;19.22;66.55;95106.50;4206656;28;20056;-68
2022/09/04 07:32:37;;;;;;;23.15;14.02;;;;;;;18.99;66.88;95114.84;4191904;28;20052;-67
2022/09/04 07:34:38;;;;;;;21.88;14.82;;;;;;;19.01;67.40;95116.28;4199534;28;20047;-68
2022/09/04 07:36:55;;;;;;;19.95;15.23;;;;;;;19.26;67.05;95117.56;4220828;28;20074;-67
2022/09/04 07:39:02;;;;;;;19.60;14.82;;;;;;;19.48;65.99;95116.31;4214099;28;20052;-67
2022/09/04 07:41:18;;;;;;;21.60;14.93;;;;;;;19.77;65.76;95131.09;4204060;28;20552;-66
2022/09/04 07:43:35;;;;;;;20.48;16.33;;;;;;;19.72;64.49;95133.53;4209734;28;20052;-65
2022/09/04 07:45:54;;;;;;;20.85;15.57;;;;;;;19.37;65.62;95140.84;4221036;28;20059;-66
2022/09/04 07:48:16;;;;;;;24.30;15.88;;;;;;;19.46;65.71;95142.28;4210575;28;20040;-67
2022/09/04 07:50:21;;;;;;;20.67;15.02;;;;;;;19.55;65.40;95142.91;4213827;28;20059;-65
2022/09/04 07:52:33;;;;;;;21.75;15.88;;;;;;;19.71;65.49;95149.69;4211580;28;20492;-66
2022/09/04 07:54:35;;;;;;;24.48;17.38;;;;;;;19.55;65.30;95146.41;4212208;28;20652;-66
2022/09/04 07:57:15;;;;;;;24.98;17.77;;;;;;;19.48;65.72;95142.09;4213560;28;20059;-66
2022/09/04 07:59:29;;;;;;;22.98;17.80;;;;;;;19.27;66.23;95151.03;4213518;28;20554;-67
2022/09/04 08:02:02;;;;;;;22.73;17.33;;;;;;;19.20;66.96;95151.84;4209649;28;20052;-65
2022/09/04 08:04:41;;;;;;;23.60;16.60;;;;;;;19.52;66.62;95143.31;4211157;28;20083;-65
2022/09/04 08:06:48;;;;;;;32.13;18.17;;;;;;;19.54;65.43;95146.59;4197332;28;20048;-66
2022/09/04 08:09:22;;;;;;;27.05;17.60;;;;;;;19.50;65.35;95156.78;4211801;28;20052;-65
2022/09/04 08:11:44;;;;;;;23.87;17.83;;;;;;;19.55;66.06;95159.69;4201998;28;20479;-66
2022/09/04 08:14:15;;;;;;;23.60;17.10;;;;;;;19.55;65.00;95159.69;4213115;28;20345;-67
2022/09/04 08:16:31;;;;;;;21.55;15.35;;;;;;;19.59;64.81;95158.22;4201402;28;20052;-66
2022/09/04 08:18:46;;;;;;;25.88;16.67;;;;;;;19.17;65.97;95167.38;4213289;28;20048;-64
2022/09/04 08:21:20;;;;;;;22.92;17.05;;;;;;;19.22;66.14;95159.63;4200145;28;20051;-64
2022/09/04 08:24:00;;;;;;;21.80;16.38;;;;;;;19.37;65.87;95162.91;4197205;28;20110;-66
2022/09/04 08:26:13;;;;;;;23.80;16.33;;;;;;;19.56;65.23;95163.97;4205003;28;20136;-66
2022/09/04 08:28:39;;;;;;;23.63;16.33;;;;;;;19.73;64.78;95160.94;4213388;28;20036;-64
2022/09/04 08:31:16;;;;;;;20.10;15.15;;;;;;;19.84;64.28;95163.78;4211662;28;20156;-65
2022/09/04 08:33:38;;;;;;;21.30;15.57;;;;;;;19.96;63.79;95153.38;4202902;28;20050;-67
2022/09/04 08:35:58;;;;;;;17.52;13.75;;;;;;;20.11;63.28;95147.81;4218620;28;20051;-66
2022/09/04 08:38:22;;;;;;;20.27;14.10;;;;;;;20.43;62.76;95148.78;4222972;28;20036;-68
2022/09/04 08:41:05;;;;;;;17.60;13.98;;;;;;;20.40;62.15;95148.38;4213280;28;20048;-67
2022/09/04 08:43:29;;;;;;;18.52;12.25;;;;;;;20.23;61.67;95151.47;4210779;28;20051;-69
2022/09/04 08:46:05;;;;;;;16.50;12.95;;;;;;;20.20;61.86;95151.09;4212842;28;20051;-67
2022/09/04 08:48:26;;;;;;;17.02;12.10;;;;;;;20.50;60.35;95147.91;4210782;28;20047;-68
2022/09/04 08:50:38;;;;;;;13.60;11.40;;;;;;;20.76;59.66;95145.19;4212602;28;20082;-59
2022/09/04 08:52:52;;;;;;;14.15;10.48;;;;;;;21.06;58.55;95148.13;4211825;28;20048;-59
2022/09/04 08:55:20;;;;;;;12.25;10.05;;;;;;;21.18;58.22;95132.25;4201280;28;20048;-64
2022/09/04 08:57:38;;;;;;;12.95;10.13;;;;;;;21.50;58.37;95140.28;4223236;28;20578;-67
2022/09/04 09:00:09;;;;;;;11.73;9.75;;;;;;;21.87;57.63;95135.88;4201510;28;20046;-67
2022/09/04 09:02:20;;;;;;;12.95;10.27;;;;;;;22.14;56.28;95130.31;4213013;28;20052;-66
2022/09/04 09:04:51;;;;;;;10.32;8.45;;;;;;;22.31;54.91;95132.44;4212070;28;20499;-66
2022/09/04 09:07:18;;;;;;;10.60;8.32;;;;;;;22.47;54.29;95137.19;4211002;28;20496;-66
2022/09/04 09:09:57;;;;;;;8.85;6.93;;;;;;;22.68;53.06;95126.03;4212761;28;20483;-65
2022/09/04 09:12:07;;;;;;;9.68;6.80;;;;;;;22.59;52.58;95140.75;4212271;28;20060;-66
2022/09/04 09:14:27;;;;;;;6.78;6.03;;;;;;;22.40;51.51;95136.44;4211511;28;20056;-67
2022/09/04 09:16:51;;;;;;;8.38;6.13;;;;;;;22.52;52.65;95141.84;4209910;28;20657;-68
2022/09/04 09:19:01;;;;;;;9.05;7.10;;;;;;;22.77;52.29;95139.91;4210529;28;20480;-66
2022/09/04 09:21:48;;;;;;;10.30;6.70;;;;;;;22.89;52.34;95132.78;4219359;28;20565;-66
2022/09/04 09:24:34;;;;;;;9.95;7.80;;;;;;;23.08;52.36;95135.44;4197691;28;20043;-66
2022/09/04 09:27:00;;;;;;;8.18;6.78;;;;;;;23.03;51.23;95137.97;4196533;28;20488;-65
2022/09/04 09:29:15;;;;;;;7.88;6.63;;;;;;;23.09;51.29;95123.72;4198038;28;20048;-66
2022/09/04 09:31:33;;;;;;;7.90;6.38;;;;;;;22.51;52.33;95130.38;4222430;28;20117;-66
2022/09/04 09:33:45;;;;;;;9.70;6.55;;;;;;;22.66;52.33;95117.44;4211156;28;20101;-67
2022/09/04 09:36:08;;;;;;;7.65;5.72;;;;;;;22.53;52.26;95130.97;4212247;28;20488;-66
2022/09/04 09:38:28;;;;;;;6.90;5.90;;;;;;;22.45;52.20;95126.72;4198850;28;20040;-66
2022/09/04 09:40:30;;;;;;;9.00;6.07;;;;;;;22.60;51.92;95118.34;4203715;28;20504;-67
2022/09/04 09:42:37;;;;;;;8.45;7.03;;;;;;;22.82;51.93;95115.19;4211189;28;20456;-67
2022/09/04 09:45:14;;;;;;;8.02;6.53;;;;;;;23.03;51.85;95112.06;4211335;28;20105;-65
2022/09/04 09:47:25;;;;;;;7.18;6.00;;;;;;;23.28;51.65;95109.25;4191357;28;20443;-64
2022/09/04 09:49:26;;;;;;;8.77;6.80;;;;;;;23.17;50.80;95110.03;4211349;28;20149;-67
2022/09/04 09:52:12;;;;;;;9.23;6.32;;;;;;;23.15;51.08;95103.28;4211335;28;20047;-66
2022/09/04 09:54:37;;;;;;;7.40;6.20;;;;;;;23.16;50.79;95104.91;4143412;28;20492;-69
2022/09/04 09:56:44;;;;;;;9.35;6.00;;;;;;;23.14;51.02;95091.75;4187130;28;20055;-67
2022/09/04 09:59:18;;;;;;;7.25;6.20;;;;;;;23.30;50.89;95091.13;4211272;28;20108;-68
2022/09/04 10:01:23;;;;;;;8.27;6.07;;;;;;;23.43;50.06;95082.09;4199182;28;20052;-66
2022/09/04 10:03:37;;;;;;;8.60;6.03;;;;;;;23.60;50.56;95078.75;4213216;28;20190;-68
2022/09/04 10:05:45;;;;;;;8.52;5.93;;;;;;;23.68;49.10;95094.44;4211242;28;20105;-67
2022/09/04 10:08:05;;;;;;;7.75;5.88;;;;;;;23.39;50.26;95096.97;4198150;28;20499;-66
2022/09/04 10:10:29;;;;;;;6.95;5.90;;;;;;;23.22;50.76;95101.34;4211592;28;20044;-65
2022/09/04 10:13:00;;;;;;;6.80;5.80;;;;;;;23.20;50.46;95098.88;4198370;28;20101;-66
2022/09/04 10:15:20;;;;;;;9.73;7.00;;;;;;;23.10;50.82;95096.78;4209963;28;20101;-69
2022/09/04 10:18:19;;;;;;;8.50;6.18;;;;;;;23.09;51.03;95084.44;4209457;28;20097;-67
2022/09/04 10:20:45;;;;;;;7.63;6.00;;;;;;;23.42;50.84;95077.78;4159200;28;20057;-67
2022/09/04 10:23:23;;;;;;;7.80;5.93;;;;;;;23.73;50.10;95075.03;4142393;28;20685;-68
2022/09/04 10:26:03;;;;;;;6.45;5.75;;;;;;;23.88;48.96;95067.41;4182593;28;20085;-65
2022/09/04 10:28:20;;;;;;;7.13;5.72;;;;;;;24.12;48.75;95070.88;4175794;28;20057;-65
2022/09/04 10:30:23;;;;;;;7.05;6.10;;;;;;;24.12;48.88;95073.53;4165757;28;20041;-67
2022/09/04 10:32:31;;;;;;;7.35;6.32;;;;;;;24.35;48.81;95075.38;4178137;28;20057;-66
2022/09/04 10:34:53;;;;;;;8.60;6.35;;;;;;;24.43;47.50;95082.22;4211251;28;20136;-66
2022/09/04 10:37:32;;;;;;;10.68;6.25;;;;;;;24.39;47.54;95076.50;4202735;28;20097;-68
2022/09/04 10:40:34;;;;;;;8.07;6.75;;;;;;;24.49;47.26;95078.63;4206950;28;20098;-65
2022/09/04 10:43:08;;;;;;;7.03;6.15;;;;;;;24.71;47.26;95073.44;4177123;28;20060;-66
2022/09/04 10:45:24;;;;;;;7.10;5.90;;;;;;;24.99;46.90;95071.81;4203964;28;20108;-67
2022/09/04 10:48:02;;;;;;;9.18;6.00;;;;;;;25.27;46.58;95060.25;4210553;28;20052;-67
2022/09/04 10:50:40;;;;;;;6.60;5.90;;;;;;;25.47;46.48;95049.09;4205063;28;20120;-66